createdAt,value
2018-05-29T00:02:09.216Z,92.90
2018-05-29T00:04:35.654Z,92.90
2018-05-29T00:07:02.077Z,92.80
2018-05-29T00:09:29.285Z,92.70
2018-05-29T00:11:55.732Z,92.70
2018-05-29T00:14:22.894Z,92.80
2018-05-29T00:16:50.048Z,93.20
2018-05-29T00:19:16.472Z,92.80
2018-05-29T00:21:42.867Z,92.80
2018-05-29T00:24:10.168Z,92.90
2018-05-29T00:26:36.984Z,92.80
2018-05-29T00:29:03.419Z,92.90
2018-05-29T00:31:29.818Z,92.90
2018-05-29T00:33:56.263Z,92.80
2018-05-29T00:36:22.657Z,92.80
2018-05-29T00:38:49.109Z,92.80
2018-05-29T00:41:16.289Z,92.80
2018-05-29T00:43:42.688Z,92.70
2018-05-29T00:46:09.140Z,92.80
2018-05-29T00:48:36.246Z,92.60
2018-05-29T00:51:03.988Z,92.60
2018-05-29T00:53:30.421Z,92.60
2018-05-29T00:55:56.870Z,92.60
2018-05-29T00:58:23.828Z,92.60
2018-05-29T01:00:50.977Z,92.90
2018-05-29T01:03:17.422Z,92.60
2018-05-29T01:05:43.866Z,92.60
2018-05-29T01:08:10.321Z,92.60
2018-05-29T01:10:36.751Z,92.50
2018-05-29T01:13:03.189Z,92.40
2018-05-29T01:15:29.735Z,92.40
2018-05-29T01:17:56.889Z,92.40
2018-05-29T01:20:23.304Z,92.40
2018-05-29T01:22:49.740Z,92.40
2018-05-29T01:25:16.158Z,92.30
2018-05-29T01:27:43.306Z,92.40
2018-05-29T01:30:09.775Z,92.40
2018-05-29T01:32:36.161Z,92.50
2018-05-29T01:35:02.655Z,92.50
2018-05-29T01:37:29.063Z,92.60
2018-05-29T01:39:56.207Z,92.70
2018-05-29T01:42:22.700Z,92.70
2018-05-29T01:44:49.842Z,92.90
2018-05-29T01:47:16.262Z,92.90
2018-05-29T01:49:42.691Z,93.00
2018-05-29T01:52:09.105Z,93.50
2018-05-29T01:54:35.511Z,93.20
2018-05-29T01:57:01.951Z,93.20
2018-05-29T01:59:28.391Z,93.60
2018-05-29T02:01:55.550Z,93.20
2018-05-29T02:04:22.769Z,93.50
2018-05-29T02:06:49.913Z,93.40
2018-05-29T02:09:17.102Z,93.50
2018-05-29T02:11:43.570Z,93.50
2018-05-29T02:14:09.986Z,93.40
2018-05-29T02:16:36.379Z,93.40
2018-05-29T02:19:02.830Z,93.50
2018-05-29T02:21:29.999Z,93.40
2018-05-29T02:23:56.405Z,93.40
2018-05-29T02:26:22.812Z,93.40
2018-05-29T02:28:49.246Z,93.50
2018-05-29T02:31:16.406Z,93.50
2018-05-29T02:33:42.890Z,93.40
2018-05-29T02:36:09.494Z,93.40
2018-05-29T02:38:35.883Z,93.40
2018-05-29T02:41:02.854Z,93.80
2018-05-29T02:43:29.329Z,93.50
2018-05-29T02:45:56.600Z,93.50
2018-05-29T02:48:23.068Z,93.50
2018-05-29T02:50:49.520Z,93.50
2018-05-29T02:53:15.916Z,93.50
2018-05-29T02:55:42.341Z,93.50
2018-05-29T02:58:08.779Z,93.40
2018-05-29T03:00:35.957Z,93.40
2018-05-29T03:03:02.486Z,93.40
2018-05-29T03:05:28.945Z,93.30
2018-05-29T03:07:55.362Z,93.30
2018-05-29T03:10:21.797Z,93.30
2018-05-29T03:12:48.732Z,93.30
2018-05-29T03:15:15.928Z,93.30
2018-05-29T03:17:42.350Z,93.20
2018-05-29T03:20:08.801Z,93.20
2018-05-29T03:22:35.351Z,93.10
2018-05-29T03:25:05.325Z,93.00
2018-05-29T03:27:32.498Z,92.80
2018-05-29T03:29:59.670Z,92.70
2018-05-29T03:32:26.850Z,92.60
2018-05-29T03:34:53.245Z,92.60
2018-05-29T03:37:19.657Z,92.50
2018-05-29T03:39:46.835Z,92.50
2018-05-29T03:42:13.261Z,92.50
2018-05-29T03:44:40.467Z,92.80
2018-05-29T03:47:06.910Z,92.40
2018-05-29T03:49:34.090Z,92.40
2018-05-29T03:52:00.494Z,92.40
2018-05-29T03:54:27.796Z,92.50
2018-05-29T03:56:54.241Z,92.40
2018-05-29T03:59:20.691Z,92.40
2018-05-29T04:01:47.185Z,92.30
2018-05-29T04:04:14.395Z,92.40
2018-05-29T04:06:40.867Z,92.30
2018-05-29T04:09:07.288Z,92.20
2018-05-29T04:11:33.720Z,91.50
2018-05-29T04:14:00.954Z,88.60
2018-05-29T04:16:27.378Z,88.60
2018-05-29T04:18:53.796Z,86.20
2018-05-29T04:21:20.981Z,81.90
2018-05-29T04:23:48.255Z,79.20
2018-05-29T04:26:16.386Z,76.40
2018-05-29T04:28:42.839Z,76.50
2018-05-29T04:31:10.082Z,73.30
2018-05-29T04:33:36.577Z,73.10
2018-05-29T04:36:03.764Z,72.50
2018-05-29T04:38:30.852Z,71.40
2018-05-29T04:40:57.291Z,70.70
2018-05-29T04:43:23.743Z,69.30
2018-05-29T04:45:50.251Z,67.30
2018-05-29T04:48:17.441Z,65.30
2018-05-29T04:50:43.985Z,65.30
2018-05-29T04:53:11.172Z,62.10
2018-05-29T04:55:37.719Z,62.00
2018-05-29T04:58:04.277Z,60.00
2018-05-29T05:00:30.725Z,59.30
2018-05-29T05:02:58.537Z,58.60
2018-05-29T05:05:24.969Z,58.00
2018-05-29T05:07:52.127Z,56.50
2018-05-29T05:10:19.311Z,56.30
2018-05-29T05:12:46.480Z,54.60
2018-05-29T05:15:13.764Z,54.30
2018-05-29T05:17:40.322Z,54.30
2018-05-29T05:20:06.820Z,53.80
2018-05-29T05:22:33.213Z,52.90
2018-05-29T05:24:59.805Z,52.20
2018-05-29T05:27:26.229Z,52.40
2018-05-29T05:29:53.427Z,51.80
2018-05-29T05:32:19.873Z,51.50
2018-05-29T05:34:47.070Z,50.40
2018-05-29T05:37:14.230Z,50.30
2018-05-29T05:39:40.662Z,50.10
2018-05-29T05:42:07.136Z,50.20
2018-05-29T05:44:34.321Z,47.70
2018-05-29T05:47:00.772Z,47.70
2018-05-29T05:49:27.205Z,46.80
2018-05-29T05:51:54.409Z,43.90
2018-05-29T05:54:20.951Z,43.70
2018-05-29T05:56:48.158Z,43.50
2018-05-29T05:59:14.568Z,42.80
2018-05-29T06:01:41.794Z,42.10
2018-05-29T06:04:08.230Z,42.00
2018-05-29T06:06:35.323Z,40.70
2018-05-29T06:09:01.941Z,39.70
2018-05-29T06:11:29.105Z,38.70
2018-05-29T06:13:56.323Z,37.60
2018-05-29T06:16:22.738Z,37.60
2018-05-29T06:18:49.303Z,36.90
2018-05-29T06:21:15.803Z,36.20
2018-05-29T06:23:42.867Z,35.70
2018-05-29T06:26:10.066Z,34.90
2018-05-29T06:28:37.478Z,34.40
2018-05-29T06:31:04.723Z,34.30
2018-05-29T06:33:31.184Z,34.30
2018-05-29T06:35:57.667Z,34.30
2018-05-29T06:38:24.865Z,33.30
2018-05-29T06:40:52.114Z,32.70
2018-05-29T06:43:19.309Z,32.20
2018-05-29T06:45:45.714Z,32.20
2018-05-29T06:48:12.300Z,32.50
2018-05-29T06:50:38.756Z,32.90
2018-05-29T06:53:05.947Z,32.80
2018-05-29T06:55:32.487Z,32.70
2018-05-29T06:57:59.637Z,32.30
2018-05-29T07:00:26.065Z,32.30
2018-05-29T07:02:52.524Z,31.30
2018-05-29T07:05:19.018Z,31.20
2018-05-29T07:07:46.202Z,30.70
2018-05-29T07:10:13.375Z,30.80
2018-05-29T07:12:39.793Z,30.80
2018-05-29T07:15:06.287Z,30.60
2018-05-29T07:17:33.482Z,30.80
2018-05-29T07:20:00.040Z,30.80
2018-05-29T07:22:27.266Z,31.50
2018-05-29T07:24:54.439Z,31.40
2018-05-29T07:27:21.014Z,31.40
2018-05-29T07:29:47.529Z,30.90
2018-05-29T07:32:14.048Z,31.90
2018-05-29T07:34:40.622Z,31.20
2018-05-29T07:37:07.157Z,31.10
2018-05-29T07:39:34.326Z,30.30
2018-05-29T07:42:01.484Z,30.50
2018-05-29T07:44:28.776Z,30.60
2018-05-29T07:46:55.932Z,31.00
2018-05-29T07:49:23.572Z,31.60
2018-05-29T07:51:50.031Z,30.90
2018-05-29T07:54:16.530Z,31.20
2018-05-29T07:56:43.697Z,31.10
2018-05-29T07:59:10.152Z,31.00
2018-05-29T08:01:36.629Z,31.20
2018-05-29T08:04:03.820Z,32.20
2018-05-29T08:06:30.315Z,32.20
2018-05-29T08:08:56.796Z,32.90
2018-05-29T08:11:23.275Z,33.90
2018-05-29T08:13:49.735Z,34.60
2018-05-29T08:16:16.390Z,35.40
2018-05-29T08:18:43.542Z,36.20
2018-05-29T08:21:10.751Z,36.30
2018-05-29T08:23:37.297Z,36.70
2018-05-29T08:26:04.533Z,39.80
2018-05-29T08:28:32.452Z,41.60
2018-05-29T08:30:59.736Z,42.30
2018-05-29T08:33:26.184Z,42.20
2018-05-29T08:35:53.356Z,43.70
2018-05-29T08:38:19.842Z,43.60
2018-05-29T08:40:46.283Z,43.40
2018-05-29T08:43:12.748Z,44.40
2018-05-29T08:45:39.165Z,45.40
2018-05-29T08:48:06.172Z,46.10
2018-05-29T08:50:33.566Z,47.50
2018-05-29T08:53:00.629Z,47.40
2018-05-29T08:55:27.098Z,47.70
2018-05-29T08:57:53.523Z,47.10
2018-05-29T09:00:19.921Z,48.80
2018-05-29T09:02:46.389Z,49.10
2018-05-29T09:05:12.872Z,49.00
2018-05-29T09:07:40.264Z,50.00
2018-05-29T09:10:07.638Z,50.00
2018-05-29T09:12:34.882Z,50.40
2018-05-29T09:15:01.473Z,50.40
2018-05-29T09:17:27.890Z,51.00
2018-05-29T09:19:54.393Z,50.70
2018-05-29T09:22:21.597Z,50.30
2018-05-29T09:24:48.021Z,50.30
2018-05-29T09:27:14.468Z,50.50
2018-05-29T09:29:41.785Z,50.60
2018-05-29T09:32:08.158Z,50.60
2018-05-29T09:34:34.658Z,51.10
2018-05-29T09:37:01.832Z,50.70
2018-05-29T09:39:28.235Z,50.70
2018-05-29T09:41:54.702Z,50.90
2018-05-29T09:44:21.139Z,51.40
2018-05-29T09:46:47.545Z,51.30
2018-05-29T09:49:14.768Z,52.20
2018-05-29T09:51:41.212Z,52.10
2018-05-29T09:54:07.651Z,51.90
2018-05-29T09:56:34.112Z,51.30
2018-05-29T09:59:00.560Z,51.30
2018-05-29T10:01:27.115Z,50.60
2018-05-29T10:03:53.575Z,51.00
2018-05-29T10:06:20.003Z,51.90
2018-05-29T10:08:47.154Z,50.80
2018-05-29T10:11:13.611Z,50.70
2018-05-29T10:13:40.808Z,51.00
2018-05-29T10:16:07.995Z,49.50
2018-05-29T10:18:34.556Z,49.50
2018-05-29T10:21:01.608Z,49.70
2018-05-29T10:23:28.818Z,50.50
2018-05-29T10:25:55.241Z,50.50
2018-05-29T10:28:22.527Z,51.10
2018-05-29T10:30:49.697Z,50.80
2018-05-29T10:33:16.214Z,50.30
2018-05-29T10:35:42.636Z,50.60
2018-05-29T10:38:09.058Z,48.70
2018-05-29T10:40:36.246Z,49.40
2018-05-29T10:43:03.509Z,49.60
2018-05-29T10:45:30.683Z,50.10
2018-05-29T10:47:57.967Z,49.70
2018-05-29T10:50:24.439Z,49.90
2018-05-29T10:52:50.892Z,50.00
2018-05-29T10:55:18.122Z,49.40
2018-05-29T10:57:45.429Z,49.20
2018-05-29T11:00:11.984Z,49.20
2018-05-29T11:02:38.544Z,50.00
2018-05-29T11:05:05.101Z,50.80
2018-05-29T11:07:32.359Z,51.60
2018-05-29T11:09:59.651Z,51.10
2018-05-29T11:12:27.882Z,50.70
2018-05-29T11:14:54.365Z,50.70
2018-05-29T11:17:20.777Z,50.70
2018-05-29T11:19:47.267Z,51.10
2018-05-29T11:22:13.700Z,51.30
2018-05-29T11:24:40.200Z,51.50
2018-05-29T11:27:06.790Z,50.50
2018-05-29T11:29:33.348Z,49.30
2018-05-29T11:32:00.111Z,50.80
2018-05-29T11:34:27.285Z,51.60
2018-05-29T11:36:55.183Z,52.00
2018-05-29T11:39:22.415Z,51.80
2018-05-29T11:41:49.831Z,51.80
2018-05-29T11:44:16.328Z,51.60
2018-05-29T11:46:42.818Z,51.60
2018-05-29T11:49:09.235Z,51.60
2018-05-29T11:51:35.716Z,51.00
2018-05-29T11:54:02.197Z,50.60
2018-05-29T11:56:29.545Z,50.90
2018-05-29T11:58:56.861Z,51.50
2018-05-29T12:01:24.102Z,50.90
2018-05-29T12:03:50.598Z,50.90
2018-05-29T12:06:17.152Z,51.30
2018-05-29T12:08:43.568Z,52.00
2018-05-29T12:11:10.811Z,49.40
2018-05-29T12:13:37.337Z,49.10
2018-05-29T12:16:04.613Z,49.50
2018-05-29T12:18:31.180Z,49.90
2018-05-29T12:20:57.628Z,50.40
2018-05-29T12:23:24.817Z,50.70
2018-05-29T12:25:52.022Z,50.70
2018-05-29T12:28:18.643Z,50.00
2018-05-29T12:30:45.039Z,50.10
2018-05-29T12:33:11.443Z,50.30
2018-05-29T12:35:37.945Z,50.00
2018-05-29T12:38:04.393Z,50.10
2018-05-29T12:40:30.848Z,51.10
2018-05-29T12:42:57.313Z,50.10
2018-05-29T12:45:23.828Z,50.70
2018-05-29T12:47:50.392Z,50.20
2018-05-29T12:50:16.822Z,49.00
2018-05-29T12:52:43.297Z,48.90
2018-05-29T12:55:11.497Z,50.20
2018-05-29T12:57:37.965Z,50.10
2018-05-29T13:00:04.451Z,48.80
2018-05-29T13:02:30.968Z,48.50
2018-05-29T13:04:57.529Z,48.10
2018-05-29T13:07:24.086Z,48.50
2018-05-29T13:09:50.606Z,48.80
2018-05-29T13:12:17.780Z,49.00
2018-05-29T13:14:44.189Z,49.60
2018-05-29T13:17:10.607Z,47.90
2018-05-29T13:19:37.781Z,49.00
2018-05-29T13:22:04.980Z,48.70
2018-05-29T13:24:31.453Z,48.70
2018-05-29T13:26:57.938Z,48.10
2018-05-29T13:29:24.348Z,48.60
2018-05-29T13:31:50.827Z,48.20
2018-05-29T13:34:17.281Z,48.10
2018-05-29T13:36:43.707Z,48.60
2018-05-29T13:39:10.971Z,48.90
2018-05-29T13:41:37.345Z,49.00
2018-05-29T13:44:03.985Z,49.60
2018-05-29T13:46:31.277Z,49.70
2018-05-29T13:48:58.130Z,49.70
2018-05-29T13:51:25.336Z,49.30
2018-05-29T13:53:51.752Z,49.30
2018-05-29T13:56:18.940Z,50.10
2018-05-29T13:58:45.498Z,49.40
2018-05-29T14:01:12.667Z,49.50
2018-05-29T14:03:39.847Z,49.60
2018-05-29T14:06:06.360Z,49.60
2018-05-29T14:08:32.824Z,50.30
2018-05-29T14:10:59.315Z,50.10
2018-05-29T14:13:26.504Z,49.60
2018-05-29T14:15:52.996Z,49.60
2018-05-29T14:18:19.585Z,49.90
2018-05-29T14:20:46.001Z,49.90
2018-05-29T14:23:12.539Z,49.20
2018-05-29T14:25:38.987Z,49.70
2018-05-29T14:28:05.543Z,49.80
2018-05-29T14:30:31.990Z,50.50
2018-05-29T14:32:59.242Z,51.60
2018-05-29T14:35:25.736Z,51.50
2018-05-29T14:37:52.325Z,51.60
2018-05-29T14:40:19.042Z,52.40
2018-05-29T14:42:46.321Z,52.70
2018-05-29T14:45:12.767Z,52.70
2018-05-29T14:47:40.007Z,51.50
2018-05-29T14:50:06.539Z,51.50
2018-05-29T14:52:33.302Z,51.50
2018-05-29T14:54:59.830Z,51.40
2018-05-29T14:57:26.258Z,52.20
2018-05-29T14:59:52.748Z,51.60
2018-05-29T15:02:19.213Z,51.70
2018-05-29T15:04:45.671Z,51.40
2018-05-29T15:07:12.137Z,51.60
2018-05-29T15:09:38.551Z,51.60
2018-05-29T15:12:05.746Z,53.10
2018-05-29T15:14:32.183Z,53.10
2018-05-29T15:16:59.471Z,54.90
2018-05-29T15:19:25.950Z,55.50
2018-05-29T15:21:52.450Z,55.40
2018-05-29T15:24:18.907Z,55.20
2018-05-29T15:26:45.355Z,54.90
2018-05-29T15:29:11.835Z,54.80
2018-05-29T15:31:39.003Z,55.10
2018-05-29T15:34:05.497Z,55.00
2018-05-29T15:36:32.040Z,55.40
2018-05-29T15:38:59.218Z,55.80
2018-05-29T15:41:25.644Z,55.70
2018-05-29T15:43:52.944Z,55.90
2018-05-29T15:46:19.503Z,55.90
2018-05-29T15:48:46.770Z,55.90
2018-05-29T15:51:13.231Z,55.90
2018-05-29T15:53:39.636Z,56.20
2018-05-29T15:56:06.488Z,56.10
2018-05-29T15:58:32.946Z,55.60
2018-05-29T16:01:00.460Z,55.20
2018-05-29T16:03:27.035Z,55.60
2018-05-29T16:05:54.432Z,56.00
2018-05-29T16:08:20.900Z,55.90
2018-05-29T16:10:47.394Z,56.30
2018-05-29T16:13:13.865Z,56.30
2018-05-29T16:15:40.299Z,56.60
2018-05-29T16:18:06.739Z,56.50
2018-05-29T16:20:33.268Z,56.80
2018-05-29T16:23:00.422Z,57.00
2018-05-29T16:25:26.864Z,56.90
2018-05-29T16:27:53.383Z,56.50
2018-05-29T16:30:19.893Z,56.70
2018-05-29T16:32:46.339Z,56.10
2018-05-29T16:35:12.804Z,56.40
2018-05-29T16:37:39.590Z,56.90
2018-05-29T16:40:06.768Z,57.60
2018-05-29T16:42:33.241Z,57.00
2018-05-29T16:44:59.779Z,57.10
2018-05-29T16:47:26.197Z,56.80
2018-05-29T16:49:52.888Z,57.20
2018-05-29T16:52:20.077Z,57.30
2018-05-29T16:54:46.624Z,57.30
2018-05-29T16:57:13.804Z,57.90
2018-05-29T16:59:40.356Z,57.80
2018-05-29T17:02:07.630Z,58.20
2018-05-29T17:04:34.780Z,58.20
2018-05-29T17:07:01.361Z,58.20
2018-05-29T17:09:28.636Z,58.70
2018-05-29T17:11:55.829Z,58.70
2018-05-29T17:14:22.268Z,58.60
2018-05-29T17:16:48.719Z,58.70
2018-05-29T17:19:15.996Z,59.00
2018-05-29T17:21:42.508Z,59.10
2018-05-29T17:24:10.144Z,58.30
2018-05-29T17:26:36.657Z,58.20
2018-05-29T17:29:03.809Z,58.10
2018-05-29T17:31:30.250Z,58.40
2018-05-29T17:33:57.433Z,58.20
2018-05-29T17:36:25.488Z,58.70
2018-05-29T17:38:52.000Z,58.70
2018-05-29T17:41:18.604Z,58.50
2018-05-29T17:43:45.788Z,58.30
2018-05-29T17:46:12.231Z,58.30
2018-05-29T17:48:39.259Z,58.10
2018-05-29T17:51:05.863Z,57.90
2018-05-29T17:53:32.371Z,57.80
2018-05-29T17:55:58.861Z,57.90
2018-05-29T17:58:25.434Z,58.10
2018-05-29T18:00:52.685Z,58.40
2018-05-29T18:03:20.244Z,58.30
2018-05-29T18:05:46.688Z,58.60
2018-05-29T18:08:13.230Z,58.40
2018-05-29T18:10:39.765Z,59.00
2018-05-29T18:13:07.038Z,59.20
2018-05-29T18:15:34.189Z,58.90
2018-05-29T18:18:01.487Z,58.90
2018-05-29T18:20:28.043Z,58.90
2018-05-29T18:22:55.228Z,59.40
2018-05-29T18:25:21.773Z,59.40
2018-05-29T18:27:49.050Z,59.90
2018-05-29T18:30:16.196Z,60.60
2018-05-29T18:32:43.398Z,61.60
2018-05-29T18:35:10.630Z,61.70
2018-05-29T18:37:37.057Z,62.20
2018-05-29T18:40:03.530Z,63.00
2018-05-29T18:42:30.047Z,63.60
2018-05-29T18:44:56.600Z,63.90
2018-05-29T18:47:23.053Z,64.40
2018-05-29T18:49:50.284Z,65.00
2018-05-29T18:52:16.748Z,65.00
2018-05-29T18:54:43.344Z,65.30
2018-05-29T18:57:09.769Z,65.50
2018-05-29T18:59:36.189Z,64.60
2018-05-29T19:02:02.726Z,64.00
2018-05-29T19:04:29.273Z,62.30
2018-05-29T19:06:55.831Z,61.70
2018-05-29T19:09:23.212Z,61.60
2018-05-29T19:11:49.672Z,61.60
2018-05-29T19:14:16.158Z,62.70
2018-05-29T19:16:42.741Z,64.00
2018-05-29T19:19:09.246Z,65.00
2018-05-29T19:21:35.746Z,65.90
2018-05-29T19:24:02.269Z,66.90
2018-05-29T19:26:28.916Z,68.10
2018-05-29T19:28:55.412Z,69.00
2018-05-29T19:31:21.875Z,69.90
2018-05-29T19:33:48.326Z,70.80
2018-05-29T19:36:14.778Z,71.50
2018-05-29T19:38:41.290Z,72.30
2018-05-29T19:41:07.812Z,73.20
2018-05-29T19:43:35.240Z,73.90
2018-05-29T19:46:02.271Z,74.70
2018-05-29T19:48:28.759Z,75.40
2018-05-29T19:50:55.330Z,76.20
2018-05-29T19:53:21.845Z,77.00
2018-05-29T19:55:48.538Z,77.70
2018-05-29T19:58:15.099Z,78.30
2018-05-29T20:00:41.656Z,79.10
2018-05-29T20:03:08.213Z,80.20
2018-05-29T20:05:34.876Z,81.10
2018-05-29T20:08:01.538Z,81.90
2018-05-29T20:10:29.477Z,82.70
2018-05-29T20:12:56.087Z,83.60
2018-05-29T20:15:22.528Z,84.50
2018-05-29T20:17:49.727Z,84.20
2018-05-29T20:20:16.158Z,84.20
2018-05-29T20:22:43.446Z,81.60
2018-05-29T20:25:10.003Z,81.60
2018-05-29T20:27:37.296Z,78.60
2018-05-29T20:30:03.942Z,78.50
2018-05-29T20:32:30.485Z,77.20
2018-05-29T20:34:56.993Z,75.60
2018-05-29T20:37:23.517Z,73.70
2018-05-29T20:39:50.460Z,73.00
2018-05-29T20:42:17.532Z,72.30
2018-05-29T20:44:44.720Z,71.30
2018-05-29T20:47:12.003Z,70.90
2018-05-29T20:49:38.558Z,70.90
2018-05-29T20:52:05.941Z,70.30
2018-05-29T20:54:32.449Z,70.30
2018-05-29T20:56:59.101Z,70.10
2018-05-29T20:59:25.625Z,70.10
2018-05-29T21:01:52.172Z,69.80
2018-05-29T21:04:18.646Z,69.80
2018-05-29T21:06:45.091Z,70.00
2018-05-29T21:09:11.638Z,70.50
2018-05-29T21:11:38.832Z,71.20
2018-05-29T21:14:06.087Z,71.40
2018-05-29T21:16:33.237Z,71.90
2018-05-29T21:19:01.152Z,71.70
2018-05-29T21:21:28.423Z,71.70
2018-05-29T21:23:55.698Z,72.10
2018-05-29T21:26:22.864Z,72.40
2018-05-29T21:28:50.754Z,74.10
2018-05-29T21:31:17.943Z,75.60
2018-05-29T21:33:44.451Z,75.50
2018-05-29T21:36:10.944Z,77.60
2018-05-29T21:38:38.227Z,78.50
2018-05-29T21:41:04.884Z,78.40
2018-05-29T21:43:31.442Z,78.60
2018-05-29T21:45:58.007Z,77.60
2018-05-29T21:48:24.475Z,76.60
2018-05-29T21:50:51.020Z,76.40
2018-05-29T21:53:17.677Z,76.10
2018-05-29T21:55:44.203Z,76.00
2018-05-29T21:58:10.740Z,76.10
2018-05-29T22:00:37.844Z,76.30
2018-05-29T22:03:05.109Z,78.20
2018-05-29T22:05:31.647Z,77.40
2018-05-29T22:07:58.189Z,77.90
2018-05-29T22:10:24.714Z,78.40
2018-05-29T22:12:52.098Z,79.00
